Decoded Metar for UKLR (ROVNO in UKRAINE) (IATA:N/A) | Meteo·Mobile Aviation Weather
aviador You're here:

UKLR Decoded Metar

ROVNO in UKRAINE
Report Time2018-10-17 06:00:00
UTC Time2018-10-17 06:16:32
Flight Rules vfr VFR
Wind110° at 2 kt
W.Decomp.*RWY 12: 1.9 kt HW 0.4 kt LCW
W.Rank110° ranks 7
Current wind is below 110° avg. (7.8)
Visibility9999 m
Phenomena:N/A
Clouds:N/A
Expected CloudBase > 1,200 ft AGL from Temp-Dew spread
CeilingNone
Temp09°C (ISA -5)
Dew Point06°C (82% RH)
AAT7.4°C
QNH1025 hPa
Density Alt-59 ft
Elevation755 ft
Report Wrong Elevation
Raw Report
UKLR 170600Z 11001MPS CAVOK 09/06 Q1025 R11/090070 NOSIG=

Extra information for UKLR:More info

Metar Taf Metar & Taf Last 4 Metars F.Rules Stats Wind Profile Meteogram Temp Stats Airport Information Weather charts Add Link Nearby VenuesMetar ALERT Operation Metar Decoded Social comments